createdAt,value
2018-04-17T00:00:28.510Z,6.00
2018-04-17T00:02:55.185Z,6.03
2018-04-17T00:05:22.208Z,6.43
2018-04-17T00:07:49.091Z,5.97
2018-04-17T00:10:15.803Z,6.20
2018-04-17T00:12:42.652Z,6.83
2018-04-17T00:15:09.395Z,6.17
2018-04-17T00:17:36.351Z,6.27
2018-04-17T00:20:03.500Z,6.57
2018-04-17T00:22:30.223Z,6.83
2018-04-17T00:24:57.708Z,7.20
2018-04-17T00:27:24.465Z,6.00
2018-04-17T00:29:51.203Z,6.37
2018-04-17T00:32:17.948Z,6.93
2018-04-17T00:34:44.632Z,5.73
2018-04-17T00:37:11.443Z,5.67
2018-04-17T00:39:38.293Z,5.93
2018-04-17T00:42:05.320Z,6.40
2018-04-17T00:44:33.013Z,6.67
2018-04-17T00:47:00.371Z,5.73
2018-04-17T00:49:27.119Z,6.10
2018-04-17T00:51:53.910Z,5.97
2018-04-17T00:54:21.636Z,6.67
2018-04-17T00:56:48.707Z,6.77
2018-04-17T00:59:15.432Z,6.00
2018-04-17T01:01:42.588Z,6.43
2018-04-17T01:04:09.271Z,6.40
2018-04-17T01:06:36.082Z,6.10
2018-04-17T01:09:02.826Z,6.93
2018-04-17T01:11:29.889Z,6.63
2018-04-17T01:13:56.733Z,7.33
2018-04-17T01:16:23.476Z,6.90
2018-04-17T01:18:50.275Z,6.50
2018-04-17T01:21:17.379Z,5.90
2018-04-17T01:23:44.126Z,6.30
2018-04-17T01:26:10.892Z,6.43
2018-04-17T01:28:37.925Z,7.10
2018-04-17T01:31:04.963Z,6.60
2018-04-17T01:33:32.384Z,6.87
2018-04-17T01:35:59.184Z,6.63
2018-04-17T01:38:25.933Z,6.77
2018-04-17T01:40:52.885Z,6.60
2018-04-17T01:43:19.627Z,7.73
2018-04-17T01:45:46.375Z,6.77
2018-04-17T01:48:13.223Z,6.70
2018-04-17T01:50:39.971Z,6.37
2018-04-17T01:53:06.716Z,6.70
2018-04-17T01:55:33.466Z,8.43
2018-04-17T01:58:00.237Z,6.80
2018-04-17T02:00:26.958Z,7.30
2018-04-17T02:02:53.704Z,7.23
2018-04-17T02:05:20.756Z,6.63
2018-04-17T02:07:47.451Z,6.10
2018-04-17T02:10:14.149Z,7.23
2018-04-17T02:12:40.897Z,6.93
2018-04-17T02:15:07.745Z,7.53
2018-04-17T02:17:35.120Z,7.97
2018-04-17T02:20:02.917Z,7.07
2018-04-17T02:22:30.438Z,7.97
2018-04-17T02:24:57.471Z,6.67
2018-04-17T02:27:25.875Z,7.30
2018-04-17T02:29:52.621Z,8.63
2018-04-17T02:32:19.779Z,8.20
2018-04-17T02:34:46.841Z,9.13
2018-04-17T02:37:13.575Z,6.63
2018-04-17T02:39:41.350Z,6.87
2018-04-17T02:42:08.092Z,10.30
2018-04-17T02:44:34.815Z,8.00
2018-04-17T02:47:02.300Z,8.63
2018-04-17T02:49:29.152Z,7.27
2018-04-17T02:51:56.202Z,7.17
2018-04-17T02:54:22.950Z,7.03
2018-04-17T02:56:49.695Z,7.47
2018-04-17T02:59:16.544Z,7.30
2018-04-17T03:01:43.261Z,7.27
2018-04-17T03:04:10.042Z,6.07
2018-04-17T03:06:36.883Z,7.20
2018-04-17T03:09:03.811Z,6.63
2018-04-17T03:11:31.295Z,6.77
2018-04-17T03:13:58.350Z,8.53
2018-04-17T03:16:25.097Z,6.40
2018-04-17T03:18:51.844Z,6.57
2018-04-17T03:21:18.588Z,7.20
2018-04-17T03:23:45.337Z,10.07
2018-04-17T03:26:12.079Z,6.97
2018-04-17T03:28:38.736Z,7.53
2018-04-17T03:31:05.678Z,8.13
2018-04-17T03:33:32.403Z,7.17
2018-04-17T03:35:59.851Z,7.57
2018-04-17T03:38:27.670Z,7.77
2018-04-17T03:40:54.811Z,8.43
2018-04-17T03:43:21.765Z,7.23
2018-04-17T03:45:48.818Z,7.33
2018-04-17T03:48:15.558Z,6.93
2018-04-17T03:50:43.123Z,9.77
2018-04-17T03:53:09.868Z,10.83
2018-04-17T03:55:36.614Z,8.73
2018-04-17T03:58:04.180Z,7.97
2018-04-17T04:00:30.979Z,6.97
2018-04-17T04:02:58.084Z,7.73
2018-04-17T04:05:24.827Z,7.07
2018-04-17T04:07:51.779Z,6.60
2018-04-17T04:10:18.628Z,6.73
2018-04-17T04:12:45.373Z,6.90
2018-04-17T04:15:12.173Z,6.20
2018-04-17T04:17:51.560Z,6.57
2018-04-17T04:20:30.583Z,6.17
2018-04-17T04:23:24.150Z,6.90
2018-04-17T04:26:03.148Z,5.77
2018-04-17T04:28:30.938Z,6.17
2018-04-17T04:30:57.785Z,5.90
2018-04-17T04:33:24.511Z,7.33
2018-04-17T04:35:51.998Z,6.73
2018-04-17T04:38:19.045Z,6.13
2018-04-17T04:40:45.794Z,6.03
2018-04-17T04:43:12.846Z,5.70
2018-04-17T04:45:39.571Z,5.77
2018-04-17T04:48:06.937Z,5.83
2018-04-17T04:50:34.523Z,6.43
2018-04-17T04:53:02.084Z,6.13
2018-04-17T04:55:29.136Z,6.20
2018-04-17T04:57:56.189Z,7.63
2018-04-17T05:00:22.926Z,12.47
2018-04-17T05:02:49.785Z,6.33
2018-04-17T05:05:16.529Z,6.87
2018-04-17T05:07:43.482Z,5.23
2018-04-17T05:10:10.229Z,10.43
2018-04-17T05:12:36.976Z,5.50
2018-04-17T05:15:03.931Z,6.50
2018-04-17T05:17:30.673Z,8.17
2018-04-17T05:19:57.416Z,5.80
2018-04-17T05:22:24.479Z,5.73
2018-04-17T05:24:51.315Z,6.27
2018-04-17T05:27:18.378Z,6.80
2018-04-17T05:29:45.119Z,6.93
2018-04-17T05:32:11.869Z,7.83
2018-04-17T05:34:38.586Z,6.40
2018-04-17T05:37:06.076Z,6.10
2018-04-17T05:39:33.025Z,6.40
2018-04-17T05:41:59.775Z,6.77
2018-04-17T05:44:26.523Z,8.77
2018-04-17T05:46:53.370Z,5.60
2018-04-17T05:49:20.421Z,5.53
2018-04-17T05:51:48.394Z,6.20
2018-04-17T05:54:15.346Z,6.10
2018-04-17T05:56:42.093Z,5.57
2018-04-17T05:59:08.837Z,7.50
2018-04-17T06:01:35.693Z,6.40
2018-04-17T06:04:02.432Z,6.17
2018-04-17T06:06:29.181Z,6.40
2018-04-17T06:08:55.927Z,5.87
2018-04-17T06:11:22.647Z,6.17
2018-04-17T06:13:50.403Z,7.03
2018-04-17T06:16:17.291Z,6.57
2018-04-17T06:18:45.061Z,6.07
2018-04-17T06:21:11.810Z,6.30
2018-04-17T06:23:38.553Z,6.23
2018-04-17T06:26:05.335Z,6.13
2018-04-17T06:28:32.150Z,6.33
2018-04-17T06:30:58.893Z,6.00
2018-04-17T06:33:25.647Z,6.53
2018-04-17T06:35:52.384Z,6.63
2018-04-17T06:38:19.131Z,6.53
2018-04-17T06:40:45.877Z,7.50
2018-04-17T06:43:12.831Z,6.50
2018-04-17T06:45:39.480Z,7.93
2018-04-17T06:48:06.194Z,7.33
2018-04-17T06:50:33.683Z,7.10
2018-04-17T06:53:00.532Z,7.27
2018-04-17T06:55:27.277Z,6.63
2018-04-17T06:57:54.021Z,6.50
2018-04-17T07:00:21.077Z,6.67
2018-04-17T07:02:47.824Z,6.47
2018-04-17T07:05:14.776Z,6.30
2018-04-17T07:07:41.622Z,6.60
2018-04-17T07:10:08.371Z,6.70
2018-04-17T07:12:35.219Z,6.20
2018-04-17T07:15:02.044Z,6.33
2018-04-17T07:17:29.528Z,6.23
2018-04-17T07:19:56.252Z,6.77
2018-04-17T07:22:24.045Z,6.47
2018-04-17T07:24:50.790Z,6.50
2018-04-17T07:27:17.946Z,6.40
2018-04-17T07:29:44.804Z,6.23
2018-04-17T07:32:11.586Z,5.50
2018-04-17T07:34:38.289Z,6.37
2018-04-17T07:37:05.385Z,6.60
2018-04-17T07:39:32.191Z,6.03
2018-04-17T07:41:58.936Z,6.23
2018-04-17T07:44:25.681Z,5.80
2018-04-17T07:47:04.711Z,5.57
2018-04-17T07:49:31.454Z,5.90
2018-04-17T07:51:58.405Z,5.55
2018-04-17T07:54:25.152Z,5.82
2018-04-17T07:56:51.877Z,5.90
2018-04-17T07:59:19.362Z,5.62
2018-04-17T08:01:46.106Z,6.25
2018-04-17T08:04:12.852Z,4.93
2018-04-17T08:06:39.532Z,5.90
2018-04-17T08:09:07.066Z,5.50
2018-04-17T08:11:33.810Z,4.90
2018-04-17T08:14:00.555Z,5.68
2018-04-17T08:16:27.300Z,5.43
2018-04-17T08:18:54.048Z,5.35
2018-04-17T08:21:20.719Z,5.07
2018-04-17T08:23:47.435Z,5.68
2018-04-17T08:26:14.799Z,5.30
2018-04-17T08:28:41.545Z,5.35
2018-04-17T08:31:08.220Z,5.43
2018-04-17T08:33:35.032Z,5.90
2018-04-17T08:36:01.887Z,5.63
2018-04-17T08:38:28.631Z,5.20
2018-04-17T08:40:55.359Z,5.00
2018-04-17T08:43:22.839Z,5.00
2018-04-17T08:45:50.204Z,5.45
2018-04-17T08:48:16.949Z,5.68
2018-04-17T08:50:43.695Z,5.65
2018-04-17T08:53:10.540Z,5.03
2018-04-17T08:55:37.495Z,5.03
2018-04-17T08:58:04.238Z,5.03
2018-04-17T09:00:31.086Z,5.12
2018-04-17T09:02:57.835Z,4.43
2018-04-17T09:05:24.502Z,5.17
2018-04-17T09:07:51.222Z,4.37
2018-04-17T09:10:17.973Z,4.47
2018-04-17T09:12:44.718Z,4.77
2018-04-17T09:15:11.463Z,4.17
2018-04-17T09:17:38.162Z,6.63
2018-04-17T09:20:05.160Z,4.60
2018-04-17T09:22:31.906Z,4.00
2018-04-17T09:24:58.652Z,4.77
2018-04-17T09:27:25.502Z,8.33
2018-04-17T09:29:52.247Z,4.33
2018-04-17T09:32:18.992Z,4.63
2018-04-17T09:34:45.743Z,4.47
2018-04-17T09:37:12.498Z,5.10
2018-04-17T09:39:39.748Z,5.27
2018-04-17T09:42:06.547Z,4.70
2018-04-17T09:44:33.237Z,4.83
2018-04-17T09:46:59.981Z,4.90
2018-04-17T09:49:26.807Z,4.47
2018-04-17T09:51:54.707Z,4.57
2018-04-17T09:54:21.450Z,5.00
2018-04-17T09:56:48.183Z,4.97
2018-04-17T09:59:15.555Z,5.07
2018-04-17T10:01:42.609Z,6.37
2018-04-17T10:04:10.688Z,5.10
2018-04-17T10:06:37.844Z,5.47
2018-04-17T10:09:05.724Z,4.57
2018-04-17T10:11:32.765Z,5.37
2018-04-17T10:13:59.624Z,5.27
2018-04-17T10:16:26.361Z,4.90
2018-04-17T10:18:53.106Z,5.00
2018-04-17T10:21:19.854Z,6.83
2018-04-17T10:23:46.600Z,5.00
2018-04-17T10:26:13.346Z,5.73
2018-04-17T10:28:40.001Z,4.60
2018-04-17T10:31:06.734Z,5.23
2018-04-17T10:33:33.689Z,4.90
2018-04-17T10:36:01.663Z,5.50
2018-04-17T10:38:29.284Z,5.47
2018-04-17T10:40:56.077Z,4.63
2018-04-17T10:43:22.860Z,5.13
2018-04-17T10:45:49.839Z,5.53
2018-04-17T10:48:16.723Z,6.40
2018-04-17T10:50:43.758Z,4.97
2018-04-17T10:53:11.239Z,5.40
2018-04-17T10:55:37.985Z,5.10
2018-04-17T10:58:04.837Z,5.30
2018-04-17T11:00:31.684Z,4.83
2018-04-17T11:02:58.432Z,4.80
2018-04-17T11:05:25.177Z,4.57
2018-04-17T11:07:52.066Z,4.97
2018-04-17T11:10:18.875Z,4.73
2018-04-17T11:12:46.035Z,4.70
2018-04-17T11:15:12.760Z,5.13
2018-04-17T11:17:40.217Z,4.67
2018-04-17T11:20:07.698Z,4.90
2018-04-17T11:22:34.751Z,5.10
2018-04-17T11:25:01.702Z,5.27
2018-04-17T11:27:28.453Z,5.23
2018-04-17T11:29:55.123Z,4.83
2018-04-17T11:32:22.153Z,4.67
2018-04-17T11:34:48.996Z,4.70
2018-04-17T11:37:15.743Z,4.47
2018-04-17T11:39:42.399Z,4.57
2018-04-17T11:42:10.360Z,4.63
2018-04-17T11:44:37.109Z,4.40
2018-04-17T11:47:03.855Z,5.10
2018-04-17T11:49:30.701Z,4.60
2018-04-17T11:51:57.448Z,4.80
2018-04-17T11:54:24.086Z,4.80
2018-04-17T11:56:51.144Z,6.07
2018-04-17T11:59:17.893Z,5.30
2018-04-17T12:01:44.778Z,4.50
2018-04-17T12:04:11.589Z,4.97
2018-04-17T12:06:38.439Z,4.50
2018-04-17T12:09:06.104Z,9.33
2018-04-17T12:11:32.826Z,6.13
2018-04-17T12:14:00.311Z,5.37
2018-04-17T12:16:27.059Z,5.37
2018-04-17T12:18:54.117Z,5.60
2018-04-17T12:21:20.859Z,5.57
2018-04-17T12:23:54.470Z,5.50
2018-04-17T12:26:21.211Z,5.40
2018-04-17T12:28:47.954Z,4.70
2018-04-17T12:31:14.806Z,5.37
2018-04-17T12:33:41.548Z,5.23
2018-04-17T12:36:08.398Z,4.73
2018-04-17T12:38:35.066Z,5.17
2018-04-17T12:41:01.791Z,5.13
2018-04-17T12:43:28.538Z,4.90
2018-04-17T12:45:55.381Z,4.53
2018-04-17T12:48:22.129Z,4.90
2018-04-17T12:50:48.877Z,4.50
2018-04-17T12:53:15.619Z,4.60
2018-04-17T12:55:42.674Z,4.60
2018-04-17T12:58:09.418Z,4.90
2018-04-17T13:00:36.266Z,4.70
2018-04-17T13:03:03.421Z,4.67
2018-04-17T13:05:30.254Z,4.47
2018-04-17T13:07:57.630Z,4.70
2018-04-17T13:10:24.786Z,4.30
2018-04-17T13:12:51.958Z,4.57
2018-04-17T13:15:18.672Z,4.20
2018-04-17T13:17:46.255Z,4.40
2018-04-17T13:20:14.230Z,3.97
2018-04-17T13:22:41.692Z,4.03
2018-04-17T13:25:08.544Z,4.07
2018-04-17T13:27:35.598Z,3.93
2018-04-17T13:30:02.444Z,4.00
2018-04-17T13:32:29.598Z,4.07
2018-04-17T13:34:56.736Z,4.57
2018-04-17T13:37:24.384Z,4.07
2018-04-17T13:39:51.255Z,4.00
2018-04-17T13:42:18.678Z,4.03
2018-04-17T13:44:45.478Z,4.10
2018-04-17T13:47:12.330Z,3.53
2018-04-17T13:49:39.158Z,4.03
2018-04-17T13:52:06.945Z,3.63
2018-04-17T13:54:33.691Z,3.60
2018-04-17T13:57:00.725Z,3.97
2018-04-17T13:59:28.926Z,3.87
2018-04-17T14:01:55.647Z,3.80
2018-04-17T14:04:22.519Z,3.43
2018-04-17T14:06:50.698Z,4.27
2018-04-17T14:09:17.444Z,4.00
2018-04-17T14:11:44.196Z,4.70
2018-04-17T14:14:11.555Z,4.50
2018-04-17T14:16:39.117Z,3.63
2018-04-17T14:19:07.499Z,4.40
2018-04-17T14:21:34.450Z,4.03
2018-04-17T14:24:01.301Z,3.97
2018-04-17T14:26:28.766Z,4.07
2018-04-17T14:28:55.711Z,4.40
2018-04-17T14:31:23.189Z,4.07
2018-04-17T14:33:50.229Z,3.80
2018-04-17T14:36:19.286Z,5.07
2018-04-17T14:38:46.178Z,4.53
2018-04-17T14:41:13.556Z,4.00
2018-04-17T14:43:42.880Z,6.63
2018-04-17T14:46:12.205Z,3.50
2018-04-17T14:48:44.644Z,3.63
2018-04-17T14:51:15.607Z,3.90
2018-04-17T14:53:43.213Z,3.70
2018-04-17T14:56:12.469Z,3.40
2018-04-17T14:58:40.924Z,3.30
2018-04-17T15:01:07.975Z,3.40
2018-04-17T15:03:34.927Z,5.37
2018-04-17T15:06:01.775Z,3.37
2018-04-17T15:08:28.523Z,2.77
2018-04-17T15:10:56.846Z,3.40
2018-04-17T15:13:23.548Z,3.00
2018-04-17T15:15:50.806Z,3.17
2018-04-17T15:18:17.757Z,3.30
2018-04-17T15:20:45.556Z,3.03
2018-04-17T15:23:12.992Z,2.57
2018-04-17T15:25:40.045Z,3.23
2018-04-17T15:28:06.796Z,2.60
2018-04-17T15:30:33.535Z,3.00
2018-04-17T15:33:00.281Z,2.87
2018-04-17T15:35:26.943Z,2.73
2018-04-17T15:37:54.591Z,3.13
2018-04-17T15:40:21.340Z,3.07
2018-04-17T15:42:51.474Z,2.40
2018-04-17T15:45:18.719Z,2.83
2018-04-17T15:47:45.467Z,2.90
2018-04-17T15:50:12.211Z,2.20
2018-04-17T15:52:38.880Z,2.57
2018-04-17T15:55:05.706Z,3.30
2018-04-17T15:57:32.889Z,14.67
2018-04-17T15:59:59.687Z,2.63
2018-04-17T16:02:27.686Z,2.70
2018-04-17T16:04:54.433Z,2.43
2018-04-17T16:07:21.184Z,2.60
2018-04-17T16:09:47.859Z,3.87
2018-04-17T16:12:14.998Z,3.83
2018-04-17T16:14:41.928Z,2.40
2018-04-17T16:17:08.971Z,2.77
2018-04-17T16:19:36.751Z,2.60
2018-04-17T16:22:03.804Z,2.30
2018-04-17T16:24:30.654Z,2.47
2018-04-17T16:26:57.378Z,2.40
2018-04-17T16:29:24.364Z,2.90
2018-04-17T16:31:51.097Z,2.93
2018-04-17T16:34:17.841Z,2.40
2018-04-17T16:36:44.895Z,1.97
2018-04-17T16:39:12.156Z,2.70
2018-04-17T16:41:39.495Z,2.60
2018-04-17T16:44:06.974Z,2.50
2018-04-17T16:46:33.720Z,2.50
2018-04-17T16:49:01.287Z,5.80
2018-04-17T16:51:28.269Z,3.80
2018-04-17T16:53:55.294Z,2.83
2018-04-17T16:56:22.550Z,2.30
2018-04-17T16:58:49.270Z,3.27
2018-04-17T17:01:17.579Z,2.57
2018-04-17T17:03:44.300Z,2.93
2018-04-17T17:06:12.305Z,2.80
2018-04-17T17:08:39.145Z,2.80
2018-04-17T17:11:06.099Z,3.03
2018-04-17T17:13:39.804Z,2.47
2018-04-17T17:16:06.607Z,2.30
2018-04-17T17:18:33.499Z,2.33
2018-04-17T17:21:00.350Z,2.70
2018-04-17T17:23:27.296Z,2.33
2018-04-17T17:25:54.254Z,2.40
2018-04-17T17:28:21.407Z,2.47
2018-04-17T17:30:48.768Z,3.63
2018-04-17T17:33:15.612Z,2.10
2018-04-17T17:35:42.271Z,2.33
2018-04-17T17:38:09.317Z,2.23
2018-04-17T17:40:36.568Z,2.50
2018-04-17T17:43:03.625Z,2.83
2018-04-17T17:45:30.674Z,2.60
2018-04-17T17:47:57.729Z,2.43
2018-04-17T17:50:24.689Z,2.10
2018-04-17T17:52:51.858Z,2.47
2018-04-17T17:55:19.604Z,2.40
2018-04-17T17:57:46.351Z,2.40
2018-04-17T18:00:13.592Z,2.73
2018-04-17T18:02:41.070Z,2.27
2018-04-17T18:05:07.823Z,2.93
2018-04-17T18:07:34.972Z,2.17
2018-04-17T18:10:02.853Z,2.63
2018-04-17T18:12:29.899Z,2.43
2018-04-17T18:14:56.644Z,2.70
2018-04-17T18:17:23.393Z,2.40
2018-04-17T18:19:50.138Z,2.60
2018-04-17T18:22:16.883Z,2.40
2018-04-17T18:24:43.630Z,2.43
2018-04-17T18:27:10.376Z,2.50
2018-04-17T18:29:37.227Z,2.77
2018-04-17T18:32:03.901Z,2.80
2018-04-17T18:34:30.822Z,2.70
2018-04-17T18:36:57.540Z,3.70
2018-04-17T18:39:25.080Z,2.40
2018-04-17T18:41:51.881Z,2.67
2018-04-17T18:44:18.827Z,2.83
2018-04-17T18:46:45.576Z,2.50
2018-04-17T18:49:12.321Z,3.03
2018-04-17T18:51:39.177Z,6.13
2018-04-17T18:54:06.306Z,3.63
2018-04-17T18:56:33.888Z,2.97
2018-04-17T18:59:01.456Z,2.47
2018-04-17T19:01:28.200Z,2.83
2018-04-17T19:03:55.051Z,2.93
2018-04-17T19:06:21.797Z,2.70
2018-04-17T19:08:48.745Z,2.90
2018-04-17T19:11:16.217Z,2.50
2018-04-17T19:13:42.866Z,2.80
2018-04-17T19:16:09.702Z,2.80
2018-04-17T19:18:36.445Z,2.73
2018-04-17T19:21:03.350Z,2.73
2018-04-17T19:23:30.150Z,2.90
2018-04-17T19:25:56.890Z,3.00
2018-04-17T19:28:24.148Z,5.73
2018-04-17T19:30:51.817Z,3.27
2018-04-17T19:33:18.560Z,3.80
2018-04-17T19:35:45.512Z,3.60
2018-04-17T19:38:12.366Z,2.77
2018-04-17T19:40:39.106Z,3.40
2018-04-17T19:43:05.960Z,2.97
2018-04-17T19:45:33.539Z,2.57
2018-04-17T19:48:01.599Z,3.13
2018-04-17T19:50:28.354Z,3.10
2018-04-17T19:52:55.708Z,2.90
2018-04-17T19:55:22.360Z,3.30
2018-04-17T19:57:49.335Z,3.03
2018-04-17T20:00:17.888Z,3.13
2018-04-17T20:02:45.048Z,3.10
2018-04-17T20:05:11.896Z,3.13
2018-04-17T20:07:38.740Z,3.20
2018-04-17T20:10:06.319Z,2.90
2018-04-17T20:12:34.486Z,3.20
2018-04-17T20:15:05.040Z,3.17
2018-04-17T20:17:33.359Z,2.80
2018-04-17T20:20:00.255Z,4.17
2018-04-17T20:22:26.997Z,3.13
2018-04-17T20:24:53.850Z,3.03
2018-04-17T20:27:20.590Z,3.07
2018-04-17T20:29:47.848Z,2.73
2018-04-17T20:32:15.821Z,2.93
2018-04-17T20:34:42.671Z,3.50
2018-04-17T20:37:10.074Z,3.30
2018-04-17T20:39:38.566Z,3.20
2018-04-17T20:42:05.574Z,3.27
2018-04-17T20:44:32.625Z,3.20
2018-04-17T20:46:59.576Z,3.77
2018-04-17T20:49:26.421Z,3.80
2018-04-17T20:51:53.119Z,3.37
2018-04-17T20:54:20.633Z,3.20
2018-04-17T20:56:48.403Z,3.50
2018-04-17T20:59:15.375Z,3.20
2018-04-17T21:01:44.166Z,3.23
2018-04-17T21:04:11.801Z,3.03
2018-04-17T21:06:38.559Z,2.90
2018-04-17T21:09:05.415Z,3.30
2018-04-17T21:11:32.361Z,3.57
2018-04-17T21:13:59.202Z,3.40
2018-04-17T21:16:26.090Z,3.93
2018-04-17T21:18:53.275Z,4.37
2018-04-17T21:21:20.369Z,3.50
2018-04-17T21:23:47.423Z,3.80
2018-04-17T21:26:14.167Z,3.00
2018-04-17T21:28:42.813Z,3.03
2018-04-17T21:31:10.219Z,3.87
2018-04-17T21:33:37.375Z,4.00
2018-04-17T21:36:04.358Z,3.70
2018-04-17T21:38:31.251Z,3.17
2018-04-17T21:40:59.248Z,3.07
2018-04-17T21:43:26.951Z,3.37
2018-04-17T21:45:54.484Z,3.77
2018-04-17T21:48:21.229Z,3.00
2018-04-17T21:50:48.177Z,3.20
2018-04-17T21:53:15.236Z,3.63
2018-04-17T21:55:41.982Z,3.50
2018-04-17T21:58:09.236Z,3.53
2018-04-17T22:00:35.987Z,3.40
2018-04-17T22:03:03.140Z,3.43
2018-04-17T22:05:29.886Z,3.33
2018-04-17T22:07:57.634Z,3.60
2018-04-17T22:10:27.131Z,3.20
2018-04-17T22:12:54.645Z,3.53
2018-04-17T22:15:21.787Z,3.90
2018-04-17T22:17:49.257Z,3.50
2018-04-17T22:20:18.549Z,3.93
2018-04-17T22:22:46.451Z,3.63
2018-04-17T22:25:14.195Z,3.50
2018-04-17T22:27:41.961Z,3.70
2018-04-17T22:30:08.708Z,4.37
2018-04-17T22:32:35.453Z,3.97
2018-04-17T22:35:02.407Z,3.70
2018-04-17T22:37:29.463Z,3.40
2018-04-17T22:39:56.816Z,3.40
2018-04-17T22:42:23.872Z,4.40
2018-04-17T22:44:50.619Z,4.27
2018-04-17T22:47:17.469Z,3.87
2018-04-17T22:49:44.318Z,4.20
2018-04-17T22:52:11.164Z,3.80
2018-04-17T22:54:38.679Z,4.03
2018-04-17T22:57:05.575Z,5.37
2018-04-17T22:59:32.326Z,4.23
2018-04-17T23:01:59.375Z,4.30
2018-04-17T23:04:26.945Z,4.50
2018-04-17T23:06:53.999Z,4.20
2018-04-17T23:09:21.972Z,4.13
2018-04-17T23:11:48.818Z,4.53
2018-04-17T23:14:16.074Z,4.10
2018-04-17T23:16:42.898Z,4.07
2018-04-17T23:19:09.672Z,4.33
2018-04-17T23:21:36.619Z,4.43
2018-04-17T23:24:03.675Z,4.13
2018-04-17T23:26:30.400Z,4.27
2018-04-17T23:28:57.578Z,4.23
2018-04-17T23:31:24.628Z,6.80
2018-04-17T23:33:51.766Z,4.60
2018-04-17T23:36:19.693Z,4.80
2018-04-17T23:38:49.088Z,4.03
2018-04-17T23:41:16.633Z,4.00
2018-04-17T23:43:43.924Z,4.87
2018-04-17T23:46:13.666Z,4.10
2018-04-17T23:48:41.373Z,4.87
2018-04-17T23:51:08.731Z,4.53
2018-04-17T23:53:35.475Z,4.50
2018-04-17T23:56:02.222Z,4.53
2018-04-17T23:58:28.971Z,4.37
